sensor_id;sensor_type;location;lat;lon;timestamp;P1;durP1;ratioP1;P2;durP2;ratioP2
31692;SDS011;37436;53.230;6.614;2023-07-28T00:00:00;52.42;;;13.50;;
31692;SDS011;37436;53.230;6.614;2023-07-28T00:02:33;45.70;;;13.68;;
31692;SDS011;37436;53.230;6.614;2023-07-28T00:05:03;66.05;;;15.52;;
31692;SDS011;37436;53.230;6.614;2023-07-28T00:07:30;54.08;;;12.73;;
31692;SDS011;37436;53.230;6.614;2023-07-28T00:09:59;60.60;;;13.75;;
31692;SDS011;37436;53.230;6.614;2023-07-28T00:12:31;71.80;;;15.98;;
31692;SDS011;37436;53.230;6.614;2023-07-28T00:15:00;55.08;;;12.98;;
31692;SDS011;37436;53.230;6.614;2023-07-28T00:17:30;69.55;;;15.77;;
31692;SDS011;37436;53.230;6.614;2023-07-28T00:20:02;57.70;;;14.65;;
31692;SDS011;37436;53.230;6.614;2023-07-28T00:22:38;56.88;;;15.05;;
31692;SDS011;37436;53.230;6.614;2023-07-28T00:25:11;57.78;;;15.05;;
31692;SDS011;37436;53.230;6.614;2023-07-28T00:27:37;56.78;;;15.45;;
31692;SDS011;37436;53.230;6.614;2023-07-28T00:30:07;60.17;;;15.95;;
31692;SDS011;37436;53.230;6.614;2023-07-28T00:32:54;51.97;;;16.20;;
31692;SDS011;37436;53.230;6.614;2023-07-28T00:35:30;58.65;;;15.57;;
31692;SDS011;37436;53.230;6.614;2023-07-28T00:37:57;53.53;;;16.08;;
31692;SDS011;37436;53.230;6.614;2023-07-28T00:40:29;61.88;;;16.52;;
31692;SDS011;37436;53.230;6.614;2023-07-28T00:43:17;54.38;;;16.02;;
31692;SDS011;37436;53.230;6.614;2023-07-28T00:45:45;58.25;;;15.30;;
31692;SDS011;37436;53.230;6.614;2023-07-28T00:48:12;59.97;;;16.45;;
31692;SDS011;37436;53.230;6.614;2023-07-28T00:50:42;60.65;;;16.33;;
31692;SDS011;37436;53.230;6.614;2023-07-28T00:53:14;57.05;;;14.95;;
31692;SDS011;37436;53.230;6.614;2023-07-28T00:55:44;51.08;;;16.45;;
31692;SDS011;37436;53.230;6.614;2023-07-28T00:58:18;49.55;;;16.00;;
31692;SDS011;37436;53.230;6.614;2023-07-28T01:03:40;55.00;;;14.20;;
31692;SDS011;37436;53.230;6.614;2023-07-28T01:08:49;61.10;;;15.48;;
31692;SDS011;37436;53.230;6.614;2023-07-28T01:11:21;53.13;;;14.65;;
31692;SDS011;37436;53.230;6.614;2023-07-28T01:13:47;72.25;;;15.63;;
31692;SDS011;37436;53.230;6.614;2023-07-28T01:19:06;58.15;;;14.95;;
31692;SDS011;37436;53.230;6.614;2023-07-28T01:21:33;64.50;;;15.98;;
31692;SDS011;37436;53.230;6.614;2023-07-28T01:24:13;61.25;;;14.90;;
31692;SDS011;37436;53.230;6.614;2023-07-28T01:26:45;66.53;;;16.90;;
31692;SDS011;37436;53.230;6.614;2023-07-28T01:29:11;66.03;;;16.65;;
31692;SDS011;37436;53.230;6.614;2023-07-28T01:31:40;54.40;;;16.60;;
31692;SDS011;37436;53.230;6.614;2023-07-28T01:34:06;69.97;;;17.27;;
31692;SDS011;37436;53.230;6.614;2023-07-28T01:36:32;66.85;;;17.45;;
31692;SDS011;37436;53.230;6.614;2023-07-28T01:38:59;70.22;;;17.67;;
31692;SDS011;37436;53.230;6.614;2023-07-28T01:41:25;64.75;;;18.33;;
31692;SDS011;37436;53.230;6.614;2023-07-28T01:44:00;68.32;;;17.88;;
31692;SDS011;37436;53.230;6.614;2023-07-28T01:46:27;61.78;;;17.85;;
31692;SDS011;37436;53.230;6.614;2023-07-28T01:48:53;87.57;;;20.02;;
31692;SDS011;37436;53.230;6.614;2023-07-28T01:51:32;68.97;;;18.70;;
31692;SDS011;37436;53.230;6.614;2023-07-28T01:54:01;67.00;;;16.90;;
31692;SDS011;37436;53.230;6.614;2023-07-28T01:56:30;61.47;;;15.68;;
31692;SDS011;37436;53.230;6.614;2023-07-28T01:58:56;57.28;;;16.02;;
31692;SDS011;37436;53.230;6.614;2023-07-28T02:01:25;60.15;;;15.57;;
31692;SDS011;37436;53.230;6.614;2023-07-28T02:03:51;50.40;;;15.02;;
31692;SDS011;37436;53.230;6.614;2023-07-28T02:06:21;58.58;;;15.30;;
31692;SDS011;37436;53.230;6.614;2023-07-28T02:08:53;58.63;;;14.27;;
31692;SDS011;37436;53.230;6.614;2023-07-28T02:11:23;53.40;;;14.95;;
31692;SDS011;37436;53.230;6.614;2023-07-28T02:13:52;46.72;;;11.73;;
31692;SDS011;37436;53.230;6.614;2023-07-28T02:16:18;43.60;;;10.75;;
31692;SDS011;37436;53.230;6.614;2023-07-28T02:18:44;53.08;;;12.15;;
31692;SDS011;37436;53.230;6.614;2023-07-28T02:21:12;39.53;;;12.00;;
31692;SDS011;37436;53.230;6.614;2023-07-28T02:23:38;40.47;;;11.15;;
31692;SDS011;37436;53.230;6.614;2023-07-28T02:26:05;39.63;;;11.82;;
31692;SDS011;37436;53.230;6.614;2023-07-28T02:28:31;41.83;;;12.00;;
31692;SDS011;37436;53.230;6.614;2023-07-28T02:30:59;37.42;;;12.43;;
31692;SDS011;37436;53.230;6.614;2023-07-28T02:33:28;42.53;;;13.55;;
31692;SDS011;37436;53.230;6.614;2023-07-28T02:36:27;46.00;;;13.18;;
31692;SDS011;37436;53.230;6.614;2023-07-28T02:38:53;54.60;;;13.63;;
31692;SDS011;37436;53.230;6.614;2023-07-28T02:41:25;52.63;;;14.88;;
31692;SDS011;37436;53.230;6.614;2023-07-28T02:43:56;64.57;;;15.20;;
31692;SDS011;37436;53.230;6.614;2023-07-28T02:46:25;67.75;;;16.23;;
31692;SDS011;37436;53.230;6.614;2023-07-28T02:49:04;77.18;;;16.98;;
31692;SDS011;37436;53.230;6.614;2023-07-28T02:51:33;60.30;;;16.80;;
31692;SDS011;37436;53.230;6.614;2023-07-28T02:53:59;67.03;;;16.58;;
31692;SDS011;37436;53.230;6.614;2023-07-28T02:56:50;74.25;;;16.02;;
31692;SDS011;37436;53.230;6.614;2023-07-28T02:59:17;60.42;;;16.88;;
31692;SDS011;37436;53.230;6.614;2023-07-28T03:01:43;56.65;;;17.33;;
31692;SDS011;37436;53.230;6.614;2023-07-28T03:04:11;69.57;;;16.73;;
31692;SDS011;37436;53.230;6.614;2023-07-28T03:06:43;65.75;;;19.05;;
31692;SDS011;37436;53.230;6.614;2023-07-28T03:09:23;65.78;;;18.27;;
31692;SDS011;37436;53.230;6.614;2023-07-28T03:11:49;70.82;;;18.02;;
31692;SDS011;37436;53.230;6.614;2023-07-28T03:14:21;59.35;;;18.45;;
31692;SDS011;37436;53.230;6.614;2023-07-28T03:16:48;73.93;;;18.35;;
31692;SDS011;37436;53.230;6.614;2023-07-28T03:19:16;64.90;;;17.08;;
31692;SDS011;37436;53.230;6.614;2023-07-28T03:21:44;77.78;;;19.10;;
31692;SDS011;37436;53.230;6.614;2023-07-28T03:24:13;77.50;;;18.45;;
31692;SDS011;37436;53.230;6.614;2023-07-28T03:26:45;76.45;;;18.52;;
31692;SDS011;37436;53.230;6.614;2023-07-28T03:29:11;65.22;;;16.85;;
31692;SDS011;37436;53.230;6.614;2023-07-28T03:31:37;65.70;;;16.58;;
31692;SDS011;37436;53.230;6.614;2023-07-28T03:34:09;76.22;;;17.15;;
31692;SDS011;37436;53.230;6.614;2023-07-28T03:36:45;57.03;;;16.17;;
31692;SDS011;37436;53.230;6.614;2023-07-28T03:39:36;70.32;;;16.77;;
31692;SDS011;37436;53.230;6.614;2023-07-28T03:42:09;63.35;;;14.98;;
31692;SDS011;37436;53.230;6.614;2023-07-28T03:44:40;51.92;;;14.63;;
31692;SDS011;37436;53.230;6.614;2023-07-28T03:47:07;52.47;;;15.73;;
31692;SDS011;37436;53.230;6.614;2023-07-28T03:49:33;62.97;;;15.15;;
31692;SDS011;37436;53.230;6.614;2023-07-28T03:52:03;49.28;;;13.95;;
31692;SDS011;37436;53.230;6.614;2023-07-28T03:57:35;48.45;;;11.98;;
31692;SDS011;37436;53.230;6.614;2023-07-28T04:00:30;58.67;;;11.65;;
31692;SDS011;37436;53.230;6.614;2023-07-28T04:03:05;37.60;;;11.90;;
31692;SDS011;37436;53.230;6.614;2023-07-28T04:06:09;36.42;;;10.13;;
31692;SDS011;37436;53.230;6.614;2023-07-28T04:08:37;50.28;;;11.75;;
31692;SDS011;37436;53.230;6.614;2023-07-28T04:14:05;40.08;;;12.60;;
31692;SDS011;37436;53.230;6.614;2023-07-28T04:16:35;47.65;;;11.70;;
31692;SDS011;37436;53.230;6.614;2023-07-28T04:19:10;35.83;;;11.30;;
31692;SDS011;37436;53.230;6.614;2023-07-28T04:21:50;42.13;;;10.77;;
31692;SDS011;37436;53.230;6.614;2023-07-28T04:24:56;33.92;;;10.55;;
31692;SDS011;37436;53.230;6.614;2023-07-28T04:30:51;52.47;;;11.15;;
31692;SDS011;37436;53.230;6.614;2023-07-28T04:33:20;42.80;;;10.52;;
31692;SDS011;37436;53.230;6.614;2023-07-28T04:35:50;40.33;;;9.98;;
31692;SDS011;37436;53.230;6.614;2023-07-28T04:38:16;32.10;;;7.95;;
31692;SDS011;37436;53.230;6.614;2023-07-28T04:40:59;37.03;;;11.15;;
31692;SDS011;37436;53.230;6.614;2023-07-28T04:43:40;47.33;;;10.75;;
31692;SDS011;37436;53.230;6.614;2023-07-28T04:46:07;41.15;;;10.18;;
31692;SDS011;37436;53.230;6.614;2023-07-28T04:48:36;42.28;;;9.93;;
31692;SDS011;37436;53.230;6.614;2023-07-28T04:51:19;28.05;;;8.32;;
31692;SDS011;37436;53.230;6.614;2023-07-28T04:56:21;31.45;;;8.73;;
31692;SDS011;37436;53.230;6.614;2023-07-28T04:58:55;41.00;;;10.57;;
31692;SDS011;37436;53.230;6.614;2023-07-28T05:01:23;38.95;;;11.07;;
31692;SDS011;37436;53.230;6.614;2023-07-28T05:04:03;29.15;;;9.50;;
31692;SDS011;37436;53.230;6.614;2023-07-28T05:06:29;36.00;;;10.55;;
31692;SDS011;37436;53.230;6.614;2023-07-28T05:09:00;25.73;;;8.60;;
31692;SDS011;37436;53.230;6.614;2023-07-28T05:11:28;25.77;;;9.73;;
31692;SDS011;37436;53.230;6.614;2023-07-28T05:13:54;24.40;;;9.65;;
31692;SDS011;37436;53.230;6.614;2023-07-28T05:16:20;32.83;;;9.43;;
31692;SDS011;37436;53.230;6.614;2023-07-28T05:18:48;34.08;;;9.95;;
31692;SDS011;37436;53.230;6.614;2023-07-28T05:21:17;32.38;;;10.15;;
31692;SDS011;37436;53.230;6.614;2023-07-28T05:24:02;30.17;;;9.23;;
31692;SDS011;37436;53.230;6.614;2023-07-28T05:26:30;30.20;;;9.57;;
31692;SDS011;37436;53.230;6.614;2023-07-28T05:29:00;30.75;;;9.30;;
31692;SDS011;37436;53.230;6.614;2023-07-28T05:31:26;31.33;;;10.00;;
31692;SDS011;37436;53.230;6.614;2023-07-28T05:33:52;38.35;;;9.80;;
31692;SDS011;37436;53.230;6.614;2023-07-28T05:36:22;32.88;;;9.30;;
31692;SDS011;37436;53.230;6.614;2023-07-28T05:41:54;30.98;;;8.07;;
31692;SDS011;37436;53.230;6.614;2023-07-28T05:44:20;16.17;;;7.57;;
31692;SDS011;37436;53.230;6.614;2023-07-28T05:46:55;23.38;;;8.00;;
31692;SDS011;37436;53.230;6.614;2023-07-28T05:49:23;39.60;;;8.25;;
31692;SDS011;37436;53.230;6.614;2023-07-28T05:51:49;27.77;;;9.05;;
31692;SDS011;37436;53.230;6.614;2023-07-28T05:54:15;28.65;;;8.88;;
31692;SDS011;37436;53.230;6.614;2023-07-28T05:56:42;28.33;;;8.75;;
31692;SDS011;37436;53.230;6.614;2023-07-28T05:59:15;31.27;;;9.13;;
31692;SDS011;37436;53.230;6.614;2023-07-28T06:01:42;16.52;;;7.45;;
31692;SDS011;37436;53.230;6.614;2023-07-28T06:04:13;22.88;;;8.73;;
31692;SDS011;37436;53.230;6.614;2023-07-28T06:06:39;28.88;;;8.70;;
31692;SDS011;37436;53.230;6.614;2023-07-28T06:09:06;24.02;;;8.50;;
31692;SDS011;37436;53.230;6.614;2023-07-28T06:11:33;20.85;;;8.70;;
31692;SDS011;37436;53.230;6.614;2023-07-28T06:13:59;28.02;;;8.88;;
31692;SDS011;37436;53.230;6.614;2023-07-28T06:16:28;13.93;;;7.80;;
31692;SDS011;37436;53.230;6.614;2023-07-28T06:18:54;15.23;;;7.93;;
31692;SDS011;37436;53.230;6.614;2023-07-28T06:21:44;19.77;;;8.52;;
31692;SDS011;37436;53.230;6.614;2023-07-28T06:24:10;26.13;;;7.82;;
31692;SDS011;37436;53.230;6.614;2023-07-28T06:26:55;28.88;;;8.73;;
31692;SDS011;37436;53.230;6.614;2023-07-28T06:29:28;20.33;;;7.40;;
31692;SDS011;37436;53.230;6.614;2023-07-28T06:37:43;17.10;;;7.30;;
31692;SDS011;37436;53.230;6.614;2023-07-28T06:40:37;14.68;;;7.38;;
31692;SDS011;37436;53.230;6.614;2023-07-28T06:48:24;18.90;;;7.82;;
31692;SDS011;37436;53.230;6.614;2023-07-28T06:50:56;16.08;;;6.88;;
31692;SDS011;37436;53.230;6.614;2023-07-28T06:53:27;16.67;;;8.15;;
31692;SDS011;37436;53.230;6.614;2023-07-28T06:56:04;16.77;;;8.32;;
31692;SDS011;37436;53.230;6.614;2023-07-28T06:58:36;15.27;;;7.53;;
31692;SDS011;37436;53.230;6.614;2023-07-28T07:01:02;14.23;;;8.40;;
31692;SDS011;37436;53.230;6.614;2023-07-28T07:03:32;20.80;;;8.73;;
31692;SDS011;37436;53.230;6.614;2023-07-28T07:06:08;18.73;;;9.60;;
31692;SDS011;37436;53.230;6.614;2023-07-28T07:08:34;23.30;;;9.85;;
31692;SDS011;37436;53.230;6.614;2023-07-28T07:11:00;19.52;;;9.65;;
31692;SDS011;37436;53.230;6.614;2023-07-28T07:13:26;16.25;;;9.77;;
31692;SDS011;37436;53.230;6.614;2023-07-28T07:15:52;15.38;;;7.90;;
31692;SDS011;37436;53.230;6.614;2023-07-28T07:18:19;14.57;;;8.07;;
31692;SDS011;37436;53.230;6.614;2023-07-28T07:20:49;14.35;;;7.60;;
31692;SDS011;37436;53.230;6.614;2023-07-28T07:23:15;16.20;;;7.45;;
31692;SDS011;37436;53.230;6.614;2023-07-28T07:25:41;15.13;;;7.57;;
31692;SDS011;37436;53.230;6.614;2023-07-28T07:28:09;9.68;;;6.30;;
31692;SDS011;37436;53.230;6.614;2023-07-28T07:30:35;8.18;;;6.40;;
31692;SDS011;37436;53.230;6.614;2023-07-28T07:33:01;10.07;;;6.55;;
31692;SDS011;37436;53.230;6.614;2023-07-28T07:35:37;11.07;;;6.82;;
31692;SDS011;37436;53.230;6.614;2023-07-28T07:38:04;9.15;;;6.90;;
31692;SDS011;37436;53.230;6.614;2023-07-28T07:40:34;10.13;;;6.20;;
31692;SDS011;37436;53.230;6.614;2023-07-28T07:43:05;9.18;;;5.80;;
31692;SDS011;37436;53.230;6.614;2023-07-28T07:45:45;9.35;;;6.15;;
31692;SDS011;37436;53.230;6.614;2023-07-28T07:48:21;10.93;;;6.22;;
31692;SDS011;37436;53.230;6.614;2023-07-28T07:51:18;12.10;;;6.10;;
31692;SDS011;37436;53.230;6.614;2023-07-28T07:53:44;10.30;;;5.40;;
31692;SDS011;37436;53.230;6.614;2023-07-28T07:56:10;7.50;;;6.00;;
31692;SDS011;37436;53.230;6.614;2023-07-28T07:58:37;8.52;;;5.50;;
31692;SDS011;37436;53.230;6.614;2023-07-28T08:01:03;8.63;;;6.22;;
31692;SDS011;37436;53.230;6.614;2023-07-28T08:03:34;9.40;;;6.13;;
31692;SDS011;37436;53.230;6.614;2023-07-28T08:06:03;9.75;;;6.22;;
31692;SDS011;37436;53.230;6.614;2023-07-28T08:11:24;9.48;;;5.53;;
31692;SDS011;37436;53.230;6.614;2023-07-28T08:13:50;8.80;;;6.05;;
31692;SDS011;37436;53.230;6.614;2023-07-28T08:16:24;11.35;;;5.90;;
31692;SDS011;37436;53.230;6.614;2023-07-28T08:21:25;7.85;;;5.15;;
31692;SDS011;37436;53.230;6.614;2023-07-28T08:24:05;8.52;;;4.50;;
31692;SDS011;37436;53.230;6.614;2023-07-28T08:26:49;9.00;;;4.78;;
31692;SDS011;37436;53.230;6.614;2023-07-28T08:29:26;7.13;;;5.47;;
31692;SDS011;37436;53.230;6.614;2023-07-28T08:31:52;8.02;;;5.03;;
31692;SDS011;37436;53.230;6.614;2023-07-28T08:34:18;7.28;;;4.97;;
31692;SDS011;37436;53.230;6.614;2023-07-28T08:36:50;7.43;;;5.18;;
31692;SDS011;37436;53.230;6.614;2023-07-28T08:39:17;7.03;;;5.20;;
31692;SDS011;37436;53.230;6.614;2023-07-28T08:41:46;11.18;;;5.07;;
31692;SDS011;37436;53.230;6.614;2023-07-28T08:44:12;7.32;;;4.97;;
31692;SDS011;37436;53.230;6.614;2023-07-28T08:46:41;6.53;;;4.28;;
31692;SDS011;37436;53.230;6.614;2023-07-28T08:49:28;6.03;;;4.60;;
31692;SDS011;37436;53.230;6.614;2023-07-28T08:51:57;5.65;;;4.70;;
31692;SDS011;37436;53.230;6.614;2023-07-28T08:54:25;5.95;;;5.00;;
31692;SDS011;37436;53.230;6.614;2023-07-28T08:57:00;7.35;;;4.18;;
31692;SDS011;37436;53.230;6.614;2023-07-28T08:59:27;6.10;;;4.20;;
31692;SDS011;37436;53.230;6.614;2023-07-28T09:02:15;6.97;;;4.70;;
31692;SDS011;37436;53.230;6.614;2023-07-28T09:05:02;5.28;;;4.07;;
31692;SDS011;37436;53.230;6.614;2023-07-28T09:07:35;4.35;;;3.28;;
31692;SDS011;37436;53.230;6.614;2023-07-28T09:10:02;5.32;;;4.05;;
31692;SDS011;37436;53.230;6.614;2023-07-28T09:12:33;4.65;;;3.83;;
31692;SDS011;37436;53.230;6.614;2023-07-28T09:15:14;7.22;;;3.72;;
31692;SDS011;37436;53.230;6.614;2023-07-28T09:17:42;5.47;;;3.72;;
31692;SDS011;37436;53.230;6.614;2023-07-28T09:20:20;5.50;;;4.28;;
31692;SDS011;37436;53.230;6.614;2023-07-28T09:23:06;6.78;;;3.38;;
31692;SDS011;37436;53.230;6.614;2023-07-28T09:26:10;5.88;;;3.03;;
31692;SDS011;37436;53.230;6.614;2023-07-28T09:29:01;4.20;;;2.88;;
31692;SDS011;37436;53.230;6.614;2023-07-28T09:31:32;9.52;;;2.90;;
31692;SDS011;37436;53.230;6.614;2023-07-28T09:34:02;2.95;;;2.65;;
31692;SDS011;37436;53.230;6.614;2023-07-28T09:39:27;2.88;;;2.67;;
31692;SDS011;37436;53.230;6.614;2023-07-28T09:42:14;3.58;;;3.10;;
31692;SDS011;37436;53.230;6.614;2023-07-28T09:44:49;5.13;;;3.10;;
31692;SDS011;37436;53.230;6.614;2023-07-28T09:47:34;5.47;;;3.03;;
31692;SDS011;37436;53.230;6.614;2023-07-28T09:53:03;3.60;;;2.20;;
31692;SDS011;37436;53.230;6.614;2023-07-28T09:55:30;2.38;;;2.17;;
31692;SDS011;37436;53.230;6.614;2023-07-28T09:58:21;2.58;;;1.77;;
31692;SDS011;37436;53.230;6.614;2023-07-28T10:00:53;3.75;;;2.13;;
31692;SDS011;37436;53.230;6.614;2023-07-28T10:03:22;2.70;;;2.50;;
31692;SDS011;37436;53.230;6.614;2023-07-28T10:06:38;2.70;;;1.95;;
31692;SDS011;37436;53.230;6.614;2023-07-28T10:09:09;2.70;;;1.67;;
31692;SDS011;37436;53.230;6.614;2023-07-28T10:11:52;2.10;;;1.85;;
31692;SDS011;37436;53.230;6.614;2023-07-28T10:14:43;2.72;;;2.25;;
31692;SDS011;37436;53.230;6.614;2023-07-28T10:17:16;5.35;;;2.45;;
31692;SDS011;37436;53.230;6.614;2023-07-28T10:19:51;5.05;;;2.38;;
31692;SDS011;37436;53.230;6.614;2023-07-28T10:22:17;4.47;;;2.50;;
31692;SDS011;37436;53.230;6.614;2023-07-28T10:28:24;4.03;;;2.45;;
31692;SDS011;37436;53.230;6.614;2023-07-28T10:30:58;2.78;;;2.50;;
31692;SDS011;37436;53.230;6.614;2023-07-28T10:33:35;8.83;;;2.90;;
31692;SDS011;37436;53.230;6.614;2023-07-28T10:36:18;3.67;;;3.08;;
31692;SDS011;37436;53.230;6.614;2023-07-28T10:38:59;4.95;;;2.53;;
31692;SDS011;37436;53.230;6.614;2023-07-28T10:42:14;6.03;;;2.65;;
31692;SDS011;37436;53.230;6.614;2023-07-28T10:44:39;3.50;;;3.08;;
31692;SDS011;37436;53.230;6.614;2023-07-28T10:47:11;3.92;;;2.55;;
31692;SDS011;37436;53.230;6.614;2023-07-28T10:50:02;3.42;;;2.33;;
31692;SDS011;37436;53.230;6.614;2023-07-28T10:52:29;2.72;;;1.92;;
31692;SDS011;37436;53.230;6.614;2023-07-28T10:54:58;3.53;;;2.17;;
31692;SDS011;37436;53.230;6.614;2023-07-28T10:57:32;3.70;;;2.30;;
31692;SDS011;37436;53.230;6.614;2023-07-28T11:00:04;3.65;;;2.08;;
31692;SDS011;37436;53.230;6.614;2023-07-28T11:03:00;2.35;;;1.75;;
31692;SDS011;37436;53.230;6.614;2023-07-28T11:05:56;4.05;;;2.55;;
31692;SDS011;37436;53.230;6.614;2023-07-28T14:32:36;3.60;;;1.90;;
31692;SDS011;37436;53.230;6.614;2023-07-28T14:35:09;2.25;;;2.05;;
31692;SDS011;37436;53.230;6.614;2023-07-28T14:37:36;5.45;;;2.45;;
31692;SDS011;37436;53.230;6.614;2023-07-28T14:40:07;3.53;;;1.90;;
31692;SDS011;37436;53.230;6.614;2023-07-28T14:43:17;6.70;;;1.92;;
31692;SDS011;37436;53.230;6.614;2023-07-28T14:45:45;3.78;;;2.60;;
31692;SDS011;37436;53.230;6.614;2023-07-28T14:48:11;3.92;;;2.50;;
31692;SDS011;37436;53.230;6.614;2023-07-28T14:50:37;2.40;;;1.98;;
31692;SDS011;37436;53.230;6.614;2023-07-28T14:53:10;2.92;;;2.00;;
31692;SDS011;37436;53.230;6.614;2023-07-28T14:58:18;2.25;;;1.88;;
31692;SDS011;37436;53.230;6.614;2023-07-28T15:03:36;5.35;;;3.05;;
31692;SDS011;37436;53.230;6.614;2023-07-28T15:06:03;2.22;;;1.90;;
31692;SDS011;37436;53.230;6.614;2023-07-28T15:21:32;3.38;;;2.33;;
31692;SDS011;37436;53.230;6.614;2023-07-28T15:23:58;3.70;;;1.95;;
31692;SDS011;37436;53.230;6.614;2023-07-28T15:36:55;3.65;;;2.17;;
31692;SDS011;37436;53.230;6.614;2023-07-28T15:39:31;3.28;;;1.92;;
31692;SDS011;37436;53.230;6.614;2023-07-28T15:42:00;3.25;;;2.30;;
31692;SDS011;37436;53.230;6.614;2023-07-28T15:44:29;3.03;;;2.17;;
31692;SDS011;37436;53.230;6.614;2023-07-28T15:46:55;4.97;;;2.22;;
31692;SDS011;37436;53.230;6.614;2023-07-28T15:49:30;6.28;;;2.33;;
31692;SDS011;37436;53.230;6.614;2023-07-28T15:52:16;4.95;;;2.38;;
31692;SDS011;37436;53.230;6.614;2023-07-28T15:54:45;5.20;;;2.40;;
31692;SDS011;37436;53.230;6.614;2023-07-28T15:57:15;5.97;;;2.10;;
31692;SDS011;37436;53.230;6.614;2023-07-28T15:59:47;4.15;;;2.28;;
31692;SDS011;37436;53.230;6.614;2023-07-28T16:02:14;4.05;;;2.92;;
31692;SDS011;37436;53.230;6.614;2023-07-28T16:05:00;10.88;;;3.22;;
31692;SDS011;37436;53.230;6.614;2023-07-28T16:07:26;3.63;;;2.30;;
31692;SDS011;37436;53.230;6.614;2023-07-28T16:09:57;5.97;;;1.95;;
31692;SDS011;37436;53.230;6.614;2023-07-28T16:12:23;5.93;;;1.83;;
31692;SDS011;37436;53.230;6.614;2023-07-28T16:15:09;3.67;;;2.70;;
31692;SDS011;37436;53.230;6.614;2023-07-28T16:17:37;5.32;;;3.13;;
31692;SDS011;37436;53.230;6.614;2023-07-28T16:20:10;4.82;;;2.90;;
31692;SDS011;37436;53.230;6.614;2023-07-28T16:22:45;10.75;;;3.65;;
31692;SDS011;37436;53.230;6.614;2023-07-28T16:28:22;6.53;;;2.83;;
31692;SDS011;37436;53.230;6.614;2023-07-28T16:31:12;3.92;;;2.70;;
31692;SDS011;37436;53.230;6.614;2023-07-28T16:48:08;6.05;;;3.80;;
31692;SDS011;37436;53.230;6.614;2023-07-28T16:50:48;8.20;;;4.80;;
31692;SDS011;37436;53.230;6.614;2023-07-28T17:48:20;9.48;;;4.90;;
31692;SDS011;37436;53.230;6.614;2023-07-28T17:59:31;8.10;;;4.53;;
31692;SDS011;37436;53.230;6.614;2023-07-28T18:02:33;9.38;;;5.13;;
31692;SDS011;37436;53.230;6.614;2023-07-28T18:05:38;7.85;;;4.82;;
31692;SDS011;37436;53.230;6.614;2023-07-28T18:08:37;5.93;;;4.30;;
31692;SDS011;37436;53.230;6.614;2023-07-28T18:11:16;9.68;;;4.03;;
31692;SDS011;37436;53.230;6.614;2023-07-28T18:13:46;5.32;;;4.10;;
31692;SDS011;37436;53.230;6.614;2023-07-28T18:16:15;10.38;;;4.32;;
31692;SDS011;37436;53.230;6.614;2023-07-28T18:18:49;7.72;;;4.35;;
31692;SDS011;37436;53.230;6.614;2023-07-28T18:21:15;4.90;;;3.88;;
31692;SDS011;37436;53.230;6.614;2023-07-28T18:23:43;6.18;;;3.97;;
31692;SDS011;37436;53.230;6.614;2023-07-28T18:26:09;6.45;;;3.92;;
31692;SDS011;37436;53.230;6.614;2023-07-28T18:28:36;10.32;;;5.05;;
31692;SDS011;37436;53.230;6.614;2023-07-28T18:31:22;6.10;;;4.90;;
31692;SDS011;37436;53.230;6.614;2023-07-28T18:33:48;9.80;;;4.50;;
31692;SDS011;37436;53.230;6.614;2023-07-28T18:36:18;8.75;;;4.88;;
31692;SDS011;37436;53.230;6.614;2023-07-28T18:38:57;7.20;;;4.47;;
31692;SDS011;37436;53.230;6.614;2023-07-28T18:41:35;9.65;;;4.57;;
31692;SDS011;37436;53.230;6.614;2023-07-28T18:50:52;5.57;;;4.28;;
31692;SDS011;37436;53.230;6.614;2023-07-28T18:53:21;8.63;;;5.03;;
31692;SDS011;37436;53.230;6.614;2023-07-28T18:55:47;11.02;;;5.68;;
31692;SDS011;37436;53.230;6.614;2023-07-28T19:27:36;7.15;;;3.92;;
31692;SDS011;37436;53.230;6.614;2023-07-28T19:30:15;7.05;;;4.60;;
31692;SDS011;37436;53.230;6.614;2023-07-28T19:32:42;6.70;;;3.92;;
31692;SDS011;37436;53.230;6.614;2023-07-28T19:35:17;6.30;;;4.22;;
31692;SDS011;37436;53.230;6.614;2023-07-28T19:41:04;6.17;;;3.90;;
31692;SDS011;37436;53.230;6.614;2023-07-28T19:46:56;8.00;;;4.25;;
31692;SDS011;37436;53.230;6.614;2023-07-28T19:52:56;7.03;;;3.70;;
31692;SDS011;37436;53.230;6.614;2023-07-28T19:55:38;4.70;;;3.53;;
31692;SDS011;37436;53.230;6.614;2023-07-28T19:58:47;8.45;;;4.90;;
31692;SDS011;37436;53.230;6.614;2023-07-28T20:04:49;11.02;;;5.90;;
31692;SDS011;37436;53.230;6.614;2023-07-28T20:13:51;13.38;;;6.70;;
31692;SDS011;37436;53.230;6.614;2023-07-28T20:16:38;9.80;;;6.10;;
31692;SDS011;37436;53.230;6.614;2023-07-28T20:19:10;13.57;;;6.53;;
31692;SDS011;37436;53.230;6.614;2023-07-28T20:21:39;8.85;;;5.03;;
31692;SDS011;37436;53.230;6.614;2023-07-28T20:27:29;9.50;;;5.60;;
31692;SDS011;37436;53.230;6.614;2023-07-28T20:30:04;11.02;;;5.20;;
31692;SDS011;37436;53.230;6.614;2023-07-28T20:32:46;8.18;;;5.20;;
31692;SDS011;37436;53.230;6.614;2023-07-28T20:35:35;8.25;;;5.03;;
31692;SDS011;37436;53.230;6.614;2023-07-28T20:38:01;11.00;;;5.55;;
31692;SDS011;37436;53.230;6.614;2023-07-28T20:40:43;10.15;;;5.50;;
31692;SDS011;37436;53.230;6.614;2023-07-28T20:43:12;14.68;;;5.60;;
31692;SDS011;37436;53.230;6.614;2023-07-28T20:45:41;9.57;;;4.82;;
31692;SDS011;37436;53.230;6.614;2023-07-28T20:48:10;8.88;;;4.60;;
31692;SDS011;37436;53.230;6.614;2023-07-28T20:50:37;8.30;;;5.38;;
31692;SDS011;37436;53.230;6.614;2023-07-28T20:53:24;7.85;;;3.92;;
31692;SDS011;37436;53.230;6.614;2023-07-28T20:56:01;6.30;;;4.25;;
31692;SDS011;37436;53.230;6.614;2023-07-28T20:58:30;14.90;;;4.80;;
31692;SDS011;37436;53.230;6.614;2023-07-28T21:00:57;6.28;;;4.57;;
31692;SDS011;37436;53.230;6.614;2023-07-28T21:03:28;7.97;;;4.18;;
31692;SDS011;37436;53.230;6.614;2023-07-28T21:05:55;7.43;;;4.75;;
31692;SDS011;37436;53.230;6.614;2023-07-28T21:08:24;6.25;;;4.22;;
31692;SDS011;37436;53.230;6.614;2023-07-28T21:10:52;5.10;;;3.75;;
31692;SDS011;37436;53.230;6.614;2023-07-28T21:13:22;8.05;;;4.28;;
31692;SDS011;37436;53.230;6.614;2023-07-28T21:15:57;7.47;;;4.03;;
31692;SDS011;37436;53.230;6.614;2023-07-28T21:18:25;8.98;;;4.00;;
31692;SDS011;37436;53.230;6.614;2023-07-28T21:21:05;8.82;;;3.97;;
31692;SDS011;37436;53.230;6.614;2023-07-28T21:23:32;11.15;;;4.32;;
31692;SDS011;37436;53.230;6.614;2023-07-28T21:25:59;6.72;;;4.25;;
31692;SDS011;37436;53.230;6.614;2023-07-28T21:28:25;7.95;;;4.90;;
31692;SDS011;37436;53.230;6.614;2023-07-28T21:30:51;7.82;;;4.90;;
31692;SDS011;37436;53.230;6.614;2023-07-28T21:33:21;7.28;;;4.63;;
31692;SDS011;37436;53.230;6.614;2023-07-28T21:35:47;12.27;;;5.13;;
31692;SDS011;37436;53.230;6.614;2023-07-28T21:38:13;9.15;;;5.28;;
31692;SDS011;37436;53.230;6.614;2023-07-28T21:41:00;8.05;;;4.78;;
31692;SDS011;37436;53.230;6.614;2023-07-28T21:43:26;9.15;;;5.80;;
31692;SDS011;37436;53.230;6.614;2023-07-28T21:45:55;9.13;;;6.30;;
31692;SDS011;37436;53.230;6.614;2023-07-28T21:48:21;10.05;;;6.55;;
31692;SDS011;37436;53.230;6.614;2023-07-28T21:50:55;10.40;;;6.47;;
31692;SDS011;37436;53.230;6.614;2023-07-28T21:53:22;11.75;;;7.28;;
31692;SDS011;37436;53.230;6.614;2023-07-28T21:55:48;11.35;;;6.07;;
31692;SDS011;37436;53.230;6.614;2023-07-28T21:58:18;8.82;;;5.88;;
